createdAt,value
2019-02-21T00:02:02.940Z,4.50
2019-02-21T00:04:32.286Z,4.50
2019-02-21T00:07:01.583Z,4.50
2019-02-21T00:09:30.951Z,4.60
2019-02-21T00:12:00.242Z,4.50
2019-02-21T00:14:29.564Z,4.40
2019-02-21T00:16:58.908Z,4.40
2019-02-21T00:19:28.255Z,4.50
2019-02-21T00:21:57.558Z,4.40
2019-02-21T00:24:27.071Z,4.20
2019-02-21T00:26:56.386Z,4.20
2019-02-21T00:29:25.699Z,4.20
2019-02-21T00:31:54.995Z,4.00
2019-02-21T00:34:24.311Z,4.10
2019-02-21T00:36:53.619Z,4.20
2019-02-21T00:39:22.945Z,4.30
2019-02-21T00:41:52.283Z,4.20
2019-02-21T00:44:21.646Z,4.10
2019-02-21T00:46:50.989Z,4.00
2019-02-21T00:49:20.304Z,4.00
2019-02-21T00:51:49.610Z,4.00
2019-02-21T00:54:18.943Z,4.10
2019-02-21T00:56:48.264Z,4.00
2019-02-21T00:59:17.578Z,4.00
2019-02-21T01:01:47.139Z,4.10
2019-02-21T01:04:16.472Z,4.10
2019-02-21T01:06:45.853Z,4.10
2019-02-21T01:09:15.225Z,4.00
2019-02-21T01:11:44.872Z,4.00
2019-02-21T01:14:14.187Z,3.90
2019-02-21T01:16:43.555Z,4.00
2019-02-21T01:19:12.858Z,3.90
2019-02-21T01:21:42.190Z,3.90
2019-02-21T01:24:11.691Z,4.00
2019-02-21T01:26:41.024Z,3.90
2019-02-21T01:29:10.332Z,3.90
2019-02-21T01:31:39.643Z,4.00
2019-02-21T01:34:09.030Z,4.00
2019-02-21T01:36:38.354Z,4.00
2019-02-21T01:39:07.818Z,4.10
2019-02-21T01:41:37.139Z,4.00
2019-02-21T01:44:06.439Z,3.90
2019-02-21T01:46:35.758Z,3.80
2019-02-21T01:49:06.145Z,4.00
2019-02-21T01:51:35.454Z,4.00
2019-02-21T01:54:05.067Z,4.00
2019-02-21T01:56:34.402Z,3.80
2019-02-21T01:59:03.710Z,3.80
2019-02-21T02:01:33.110Z,3.70
2019-02-21T02:04:02.422Z,3.70
2019-02-21T02:06:31.746Z,3.70
2019-02-21T02:09:01.130Z,3.80
2019-02-21T02:11:32.042Z,3.80
2019-02-21T02:14:01.373Z,3.80
2019-02-21T02:16:30.688Z,3.80
2019-02-21T02:19:00.174Z,3.70
2019-02-21T02:21:29.494Z,3.60
2019-02-21T02:23:58.819Z,3.70
2019-02-21T02:26:28.140Z,3.60
2019-02-21T02:28:57.452Z,3.80
2019-02-21T02:31:26.783Z,3.70
2019-02-21T02:33:56.167Z,3.50
2019-02-21T02:36:25.503Z,3.70
2019-02-21T02:38:54.826Z,3.70
2019-02-21T02:41:24.133Z,3.60
2019-02-21T02:43:53.445Z,3.50
2019-02-21T02:46:22.742Z,3.60
2019-02-21T02:48:52.046Z,3.40
2019-02-21T02:51:21.359Z,3.60
2019-02-21T02:53:50.747Z,3.50
2019-02-21T02:56:20.054Z,3.60
2019-02-21T02:58:49.371Z,3.50
2019-02-21T03:01:18.726Z,3.30
2019-02-21T03:03:48.039Z,3.50
2019-02-21T03:06:17.360Z,3.60
2019-02-21T03:08:46.675Z,3.70
2019-02-21T03:11:15.986Z,3.70
2019-02-21T03:13:45.291Z,3.80
2019-02-21T03:16:14.612Z,3.70
2019-02-21T03:18:44.247Z,3.80
2019-02-21T03:21:13.566Z,3.80
2019-02-21T03:23:42.870Z,3.80
2019-02-21T03:26:12.173Z,3.90
2019-02-21T03:28:41.488Z,4.00
2019-02-21T03:31:10.818Z,4.10
2019-02-21T03:33:40.120Z,4.00
2019-02-21T03:36:09.452Z,3.90
2019-02-21T03:38:38.809Z,3.80
2019-02-21T03:41:08.148Z,3.90
2019-02-21T03:43:37.470Z,3.90
2019-02-21T03:46:06.782Z,3.90
2019-02-21T03:48:36.096Z,3.80
2019-02-21T03:51:05.420Z,3.80
2019-02-21T03:53:34.903Z,3.70
2019-02-21T03:56:04.215Z,3.70
2019-02-21T03:58:33.576Z,3.60
2019-02-21T04:01:03.072Z,3.60
2019-02-21T04:03:32.393Z,3.60
2019-02-21T04:06:01.790Z,3.60
2019-02-21T04:08:31.119Z,3.60
2019-02-21T04:11:00.446Z,3.60
2019-02-21T04:13:29.770Z,3.60
2019-02-21T04:15:59.070Z,3.70
2019-02-21T04:18:28.396Z,3.80
2019-02-21T04:20:57.777Z,3.80
2019-02-21T04:23:27.091Z,3.70
2019-02-21T04:25:56.402Z,3.70
2019-02-21T04:28:25.723Z,3.80
2019-02-21T04:30:55.092Z,3.80
2019-02-21T04:33:24.422Z,3.90
2019-02-21T04:35:53.710Z,4.00
2019-02-21T04:38:23.014Z,4.10
2019-02-21T04:40:52.327Z,4.00
2019-02-21T04:43:21.658Z,4.10
2019-02-21T04:45:50.957Z,4.00
2019-02-21T04:48:20.350Z,4.10
2019-02-21T04:50:49.631Z,4.10
2019-02-21T04:53:18.955Z,4.30
2019-02-21T04:55:48.330Z,4.40
2019-02-21T04:58:17.659Z,4.40
2019-02-21T05:00:47.030Z,4.40
2019-02-21T05:03:16.328Z,4.20
2019-02-21T05:05:45.631Z,4.20
2019-02-21T05:08:14.954Z,4.20
2019-02-21T05:10:44.268Z,4.30
2019-02-21T05:13:13.646Z,4.30
2019-02-21T05:15:43.040Z,4.20
2019-02-21T05:18:12.352Z,4.30
2019-02-21T05:20:41.746Z,4.40
2019-02-21T05:23:11.067Z,4.30
2019-02-21T05:25:40.379Z,4.40
2019-02-21T05:28:23.351Z,4.50
2019-02-21T05:31:00.259Z,4.50
2019-02-21T05:33:47.866Z,4.40
2019-02-21T05:36:18.907Z,4.40
2019-02-21T05:39:08.135Z,4.40
2019-02-21T05:41:55.347Z,4.50
2019-02-21T05:44:26.380Z,4.40
2019-02-21T05:47:00.509Z,4.30
2019-02-21T05:49:40.229Z,4.30
2019-02-21T05:52:11.170Z,4.30
2019-02-21T05:54:48.024Z,4.50
2019-02-21T05:57:35.296Z,4.60
2019-02-21T06:00:08.703Z,4.60
2019-02-21T06:02:53.387Z,4.50
2019-02-21T06:05:30.214Z,4.60
2019-02-21T06:08:01.211Z,4.70
2019-02-21T06:10:48.539Z,4.70
2019-02-21T06:13:19.475Z,4.70
2019-02-21T06:15:50.434Z,4.70
2019-02-21T06:18:30.367Z,4.60
2019-02-21T06:21:04.145Z,4.60
2019-02-21T06:23:44.346Z,4.50
2019-02-21T06:26:30.456Z,4.50
2019-02-21T06:29:01.437Z,4.50
2019-02-21T06:31:30.735Z,4.80
2019-02-21T06:34:00.066Z,4.90
2019-02-21T06:36:29.389Z,4.80
2019-02-21T06:38:58.763Z,4.70
2019-02-21T06:41:29.833Z,4.90
2019-02-21T06:43:59.095Z,5.00
2019-02-21T06:46:28.416Z,5.00
2019-02-21T06:48:57.722Z,5.00
2019-02-21T06:51:27.037Z,5.10
2019-02-21T06:53:56.351Z,5.10
2019-02-21T06:56:25.670Z,5.10
2019-02-21T06:58:54.970Z,5.20
2019-02-21T07:01:29.048Z,5.20
2019-02-21T07:03:55.310Z,5.20
2019-02-21T07:06:31.803Z,5.20
2019-02-21T07:08:55.681Z,5.10
2019-02-21T07:11:25.440Z,5.00
2019-02-21T07:13:54.892Z,5.00
2019-02-21T07:16:24.215Z,4.90
2019-02-21T07:18:53.538Z,5.00
2019-02-21T07:21:22.926Z,5.00
2019-02-21T07:23:53.268Z,5.10
2019-02-21T07:26:22.617Z,5.20
2019-02-21T07:28:51.963Z,5.10
2019-02-21T07:31:28.891Z,5.10
2019-02-21T07:33:52.286Z,5.20
2019-02-21T07:36:23.882Z,5.00
2019-02-21T07:39:03.544Z,5.00
2019-02-21T07:41:41.659Z,5.10
2019-02-21T07:44:12.357Z,5.00
2019-02-21T07:46:41.954Z,5.30
2019-02-21T07:49:11.367Z,5.50
2019-02-21T07:51:41.473Z,5.50
2019-02-21T07:54:10.954Z,5.60
2019-02-21T07:56:42.318Z,5.40
2019-02-21T07:59:12.177Z,5.50
2019-02-21T08:01:41.767Z,5.70
2019-02-21T08:04:11.106Z,5.70
2019-02-21T08:06:40.418Z,5.70
2019-02-21T08:09:09.735Z,5.90
2019-02-21T08:11:39.047Z,6.00
2019-02-21T08:14:08.429Z,6.10
2019-02-21T08:16:37.741Z,6.30
2019-02-21T08:19:07.126Z,6.10
2019-02-21T08:21:36.540Z,6.20
2019-02-21T08:24:06.046Z,6.20
2019-02-21T08:26:35.370Z,6.30
2019-02-21T08:29:06.131Z,6.50
2019-02-21T08:31:35.791Z,6.40
2019-02-21T08:34:09.671Z,6.30
2019-02-21T08:36:39.139Z,6.40
2019-02-21T08:39:09.510Z,6.00
2019-02-21T08:41:39.214Z,6.10
2019-02-21T08:44:08.533Z,6.30
2019-02-21T08:46:37.846Z,6.50
2019-02-21T08:49:07.238Z,6.50
2019-02-21T08:51:36.598Z,6.70
2019-02-21T08:54:06.180Z,6.80
2019-02-21T08:56:35.567Z,6.80
2019-02-21T08:59:05.051Z,6.80
2019-02-21T09:01:34.371Z,6.90
2019-02-21T09:04:10.921Z,6.90
2019-02-21T09:06:34.703Z,7.00
2019-02-21T09:09:04.954Z,6.80
2019-02-21T09:11:35.886Z,6.90
2019-02-21T09:14:05.425Z,7.20
2019-02-21T09:16:34.770Z,7.30
2019-02-21T09:19:04.091Z,7.40
2019-02-21T09:21:33.401Z,7.60
2019-02-21T09:24:02.731Z,7.80
2019-02-21T09:26:34.615Z,7.90
2019-02-21T09:29:03.042Z,8.00
2019-02-21T09:31:32.919Z,8.10
2019-02-21T09:34:02.240Z,8.20
2019-02-21T09:36:32.522Z,8.40
2019-02-21T09:39:04.880Z,8.30
2019-02-21T09:41:34.260Z,8.00
2019-02-21T09:44:03.570Z,8.10
2019-02-21T09:46:32.883Z,8.20
2019-02-21T09:49:03.008Z,7.50
2019-02-21T09:51:33.543Z,7.70
2019-02-21T09:54:02.869Z,7.80
2019-02-21T09:56:32.294Z,8.10
2019-02-21T09:59:01.615Z,8.20
2019-02-21T10:01:32.007Z,8.40
2019-02-21T10:04:01.418Z,8.60
2019-02-21T10:06:30.721Z,8.70
2019-02-21T10:09:00.018Z,8.70
2019-02-21T10:11:29.322Z,8.80
2019-02-21T10:13:58.723Z,8.90
2019-02-21T10:16:28.031Z,9.10
2019-02-21T10:18:57.342Z,9.30
2019-02-21T10:21:26.658Z,8.60
2019-02-21T10:23:56.727Z,8.70
2019-02-21T10:26:26.299Z,9.50
2019-02-21T10:31:51.859Z,10.40
2019-02-21T10:34:21.925Z,12.10
2019-02-21T10:36:51.363Z,12.60
2019-02-21T10:39:20.740Z,12.60
2019-02-21T10:41:50.103Z,12.60
2019-02-21T10:44:19.599Z,12.30
2019-02-21T10:46:48.902Z,12.00
2019-02-21T10:49:18.223Z,12.00
2019-02-21T10:51:47.522Z,11.80
2019-02-21T10:54:16.955Z,11.70
2019-02-21T10:56:46.263Z,11.80
2019-02-21T10:59:15.690Z,11.60
2019-02-21T11:01:45.035Z,11.50
2019-02-21T11:04:14.487Z,11.50
2019-02-21T11:06:43.795Z,11.50
2019-02-21T11:09:18.982Z,11.80
2019-02-21T11:11:48.471Z,12.10
2019-02-21T11:14:17.810Z,12.30
2019-02-21T11:16:47.133Z,13.30
2019-02-21T11:19:16.485Z,15.10
2019-02-21T11:21:45.802Z,15.50
2019-02-21T11:24:15.118Z,15.20
2019-02-21T11:26:44.522Z,15.10
2019-02-21T11:29:13.930Z,14.50
2019-02-21T11:31:43.247Z,14.20
2019-02-21T11:34:12.671Z,13.90
2019-02-21T11:36:41.994Z,13.60
2019-02-21T11:39:12.338Z,13.30
2019-02-21T11:41:41.671Z,12.80
2019-02-21T11:44:10.983Z,12.80
2019-02-21T11:46:40.307Z,12.80
2019-02-21T11:49:09.794Z,12.80
2019-02-21T11:51:39.131Z,12.70
2019-02-21T11:54:08.447Z,12.50
2019-02-21T11:56:37.766Z,12.50
2019-02-21T11:59:07.081Z,12.40
2019-02-21T12:01:36.413Z,12.40
2019-02-21T12:04:05.719Z,12.50
2019-02-21T12:06:35.044Z,12.50
2019-02-21T12:09:06.794Z,12.40
2019-02-21T12:11:37.728Z,12.60
2019-02-21T12:14:07.086Z,14.30
2019-02-21T12:16:36.410Z,15.60
2019-02-21T12:19:05.744Z,16.40
2019-02-21T12:21:35.072Z,16.60
2019-02-21T12:24:04.355Z,16.60
2019-02-21T12:26:34.766Z,16.40
2019-02-21T12:29:04.065Z,15.80
2019-02-21T12:31:33.385Z,15.40
2019-02-21T12:34:02.704Z,15.20
2019-02-21T12:36:32.017Z,15.00
2019-02-21T12:39:01.630Z,14.80
2019-02-21T12:41:32.578Z,14.60
2019-02-21T12:44:01.894Z,14.40
2019-02-21T12:46:31.218Z,14.20
2019-02-21T12:49:00.753Z,14.20
2019-02-21T12:51:30.104Z,14.20
2019-02-21T12:53:59.435Z,14.00
2019-02-21T12:56:28.758Z,13.70
2019-02-21T12:58:58.067Z,13.70
2019-02-21T13:01:27.398Z,13.70
2019-02-21T13:03:56.710Z,13.90
2019-02-21T13:06:26.031Z,13.80
2019-02-21T13:08:55.352Z,13.80
2019-02-21T13:11:24.667Z,14.10
2019-02-21T13:13:53.975Z,14.10
2019-02-21T13:16:23.284Z,14.20
2019-02-21T13:18:52.613Z,14.20
2019-02-21T13:21:21.922Z,14.50
2019-02-21T13:23:51.242Z,16.00
2019-02-21T13:26:20.559Z,18.00
2019-02-21T13:28:49.871Z,18.60
2019-02-21T13:31:19.184Z,18.60
2019-02-21T13:33:48.503Z,17.60
2019-02-21T13:36:17.807Z,17.00
2019-02-21T13:38:47.131Z,16.40
2019-02-21T13:41:16.434Z,16.00
2019-02-21T13:43:45.763Z,15.70
2019-02-21T13:46:15.059Z,15.60
2019-02-21T13:48:44.446Z,15.60
2019-02-21T13:51:13.778Z,16.80
2019-02-21T13:53:43.105Z,17.60
2019-02-21T13:56:12.413Z,18.00
2019-02-21T13:58:41.737Z,17.90
2019-02-21T14:01:14.536Z,17.70
2019-02-21T14:03:42.087Z,18.20
2019-02-21T14:06:11.390Z,18.90
2019-02-21T14:08:40.799Z,18.60
2019-02-21T14:11:10.112Z,18.50
2019-02-21T14:13:41.063Z,18.10
2019-02-21T14:16:11.446Z,18.30
2019-02-21T14:18:40.811Z,18.00
2019-02-21T14:21:10.140Z,17.50
2019-02-21T14:23:41.066Z,17.10
2019-02-21T14:26:10.370Z,16.70
2019-02-21T14:28:39.690Z,16.40
2019-02-21T14:31:09.014Z,16.30
2019-02-21T14:33:38.335Z,16.70
2019-02-21T14:36:15.241Z,16.80
2019-02-21T14:38:38.651Z,16.60
2019-02-21T14:41:07.966Z,16.30
2019-02-21T14:43:38.383Z,16.20
2019-02-21T14:46:07.702Z,16.00
2019-02-21T14:48:37.015Z,15.70
2019-02-21T14:51:06.335Z,15.50
2019-02-21T14:53:35.656Z,15.50
2019-02-21T14:56:04.978Z,15.60
2019-02-21T14:58:34.318Z,15.60
2019-02-21T15:01:06.307Z,15.20
2019-02-21T15:03:35.616Z,15.30
2019-02-21T15:06:04.933Z,15.30
2019-02-21T15:08:34.314Z,15.40
2019-02-21T15:11:03.646Z,15.40
2019-02-21T15:13:32.959Z,15.50
2019-02-21T15:16:02.290Z,15.50
2019-02-21T15:18:32.673Z,15.50
2019-02-21T15:21:02.006Z,15.80
2019-02-21T15:23:31.395Z,15.80
2019-02-21T15:28:59.970Z,15.90
2019-02-21T15:31:28.456Z,15.90
2019-02-21T15:33:57.775Z,15.90
2019-02-21T15:36:37.658Z,15.80
2019-02-21T15:38:58.118Z,15.70
2019-02-21T15:41:27.419Z,15.30
2019-02-21T15:43:56.731Z,15.10
2019-02-21T15:46:26.051Z,15.00
2019-02-21T15:48:55.363Z,14.90
2019-02-21T15:51:25.778Z,14.90
2019-02-21T15:53:55.152Z,14.90
2019-02-21T15:56:24.478Z,14.70
2019-02-21T15:58:53.774Z,14.60
2019-02-21T16:01:23.095Z,14.50
2019-02-21T16:03:52.402Z,14.40
2019-02-21T16:06:21.735Z,14.40
2019-02-21T16:08:51.050Z,14.20
2019-02-21T16:11:20.374Z,14.20
2019-02-21T16:14:02.067Z,14.00
2019-02-21T16:16:20.725Z,13.90
2019-02-21T16:18:50.150Z,13.80
2019-02-21T16:21:19.474Z,13.70
2019-02-21T16:23:48.775Z,13.60
2019-02-21T16:26:18.120Z,13.50
2019-02-21T16:28:47.426Z,13.40
2019-02-21T16:31:16.756Z,13.30
2019-02-21T16:33:46.066Z,13.30
2019-02-21T16:36:15.430Z,13.10
2019-02-21T16:38:44.747Z,13.00
2019-02-21T16:41:14.097Z,12.80
2019-02-21T16:43:43.456Z,12.60
2019-02-21T16:46:13.842Z,12.60
2019-02-21T16:48:43.146Z,12.50
2019-02-21T16:51:12.467Z,12.40
2019-02-21T16:53:41.854Z,12.30
2019-02-21T16:56:13.355Z,12.30
2019-02-21T16:58:42.944Z,12.20
2019-02-21T17:01:12.414Z,12.10
2019-02-21T17:03:41.734Z,12.10
2019-02-21T17:06:11.127Z,12.10
2019-02-21T17:08:40.431Z,11.70
2019-02-21T17:11:09.883Z,11.60
2019-02-21T17:13:51.528Z,11.70
2019-02-21T17:16:20.995Z,11.60
2019-02-21T17:18:50.313Z,11.70
2019-02-21T17:21:21.041Z,11.70
2019-02-21T17:23:50.700Z,11.70
2019-02-21T17:26:20.098Z,11.70
2019-02-21T17:28:49.447Z,11.60
2019-02-21T17:31:18.767Z,11.50
2019-02-21T17:33:48.103Z,11.50
2019-02-21T17:36:17.413Z,11.50
2019-02-21T17:38:46.778Z,11.60
2019-02-21T17:41:16.117Z,11.50
2019-02-21T17:43:47.885Z,11.50
2019-02-21T17:46:16.446Z,11.50
2019-02-21T17:48:45.782Z,11.40
2019-02-21T17:51:15.141Z,10.70
2019-02-21T17:53:44.531Z,10.80
2019-02-21T17:56:13.838Z,10.90
2019-02-21T17:58:43.245Z,11.00
2019-02-21T18:01:15.040Z,11.00
2019-02-21T18:03:44.394Z,11.10
2019-02-21T18:06:13.712Z,11.20
2019-02-21T18:08:44.113Z,11.20
2019-02-21T18:11:13.429Z,11.20
2019-02-21T18:13:42.818Z,11.00
2019-02-21T18:16:12.137Z,11.10
2019-02-21T18:18:41.486Z,11.10
2019-02-21T18:21:10.800Z,11.00
2019-02-21T18:23:40.322Z,11.00
2019-02-21T18:26:13.090Z,11.10
2019-02-21T18:28:42.408Z,10.90
2019-02-21T18:31:22.258Z,10.90
2019-02-21T18:33:51.587Z,11.00
2019-02-21T18:36:20.903Z,11.00
2019-02-21T18:38:50.221Z,11.00
2019-02-21T18:41:19.525Z,11.00
2019-02-21T18:43:48.847Z,11.10
2019-02-21T18:46:18.162Z,11.10
2019-02-21T18:48:47.570Z,11.10
2019-02-21T18:51:18.872Z,10.90
2019-02-21T18:53:48.146Z,10.60
2019-02-21T18:56:17.536Z,10.50
2019-02-21T18:58:48.083Z,10.50
2019-02-21T19:01:17.428Z,10.50
2019-02-21T19:03:47.356Z,10.40
2019-02-21T19:06:16.770Z,10.60
2019-02-21T19:08:46.125Z,10.70
2019-02-21T19:11:15.505Z,10.80
2019-02-21T19:13:44.937Z,10.90
2019-02-21T19:16:14.367Z,10.80
2019-02-21T19:18:43.798Z,10.80
2019-02-21T19:21:13.156Z,10.70
2019-02-21T19:23:42.743Z,10.70
2019-02-21T19:26:12.445Z,10.80
2019-02-21T19:28:42.886Z,10.80
2019-02-21T19:31:13.131Z,10.70
2019-02-21T19:33:42.470Z,10.60
2019-02-21T19:36:24.678Z,10.70
2019-02-21T19:38:54.025Z,10.80
2019-02-21T19:41:23.511Z,10.80
2019-02-21T19:43:52.921Z,10.80
2019-02-21T19:46:23.321Z,10.80
2019-02-21T19:48:52.821Z,10.80
2019-02-21T19:51:22.152Z,10.60
2019-02-21T19:53:51.702Z,10.60
2019-02-21T19:56:21.026Z,10.50
2019-02-21T19:58:50.333Z,10.50
2019-02-21T20:01:19.781Z,10.60
2019-02-21T20:03:49.258Z,10.60
2019-02-21T20:06:18.775Z,10.60
2019-02-21T20:08:48.250Z,10.70
2019-02-21T20:11:17.654Z,10.70
2019-02-21T20:13:46.977Z,10.50
2019-02-21T20:16:16.588Z,10.60
2019-02-21T20:18:47.609Z,10.70
2019-02-21T20:21:17.014Z,10.70
2019-02-21T20:23:46.502Z,10.60
2019-02-21T20:26:18.585Z,10.40
2019-02-21T20:28:46.834Z,10.40
2019-02-21T20:31:16.147Z,10.50
2019-02-21T20:33:45.535Z,10.50
2019-02-21T20:36:14.874Z,10.60
2019-02-21T20:38:44.200Z,10.50
2019-02-21T20:41:13.576Z,10.50
2019-02-21T20:43:43.226Z,10.50
2019-02-21T20:46:12.754Z,10.50
2019-02-21T20:48:42.083Z,10.40
2019-02-21T20:51:13.942Z,10.50
2019-02-21T20:53:42.517Z,10.40
2019-02-21T20:56:11.835Z,10.50
2019-02-21T20:58:41.166Z,10.10
2019-02-21T21:01:12.529Z,10.00
2019-02-21T21:03:42.170Z,10.10
2019-02-21T21:06:11.507Z,10.20
2019-02-21T21:08:44.239Z,10.20
2019-02-21T21:11:13.615Z,10.20
2019-02-21T21:13:44.153Z,10.40
2019-02-21T21:16:13.670Z,10.50
2019-02-21T21:18:43.083Z,10.40
2019-02-21T21:21:12.399Z,10.10
2019-02-21T21:23:41.736Z,10.10
2019-02-21T21:26:11.051Z,10.20
2019-02-21T21:28:40.370Z,10.30
2019-02-21T21:31:09.683Z,10.30
2019-02-21T21:33:39.010Z,10.40
2019-02-21T21:36:08.331Z,10.50
2019-02-21T21:38:37.678Z,10.40
2019-02-21T21:41:07.070Z,10.30
2019-02-21T21:43:36.415Z,10.20
2019-02-21T21:46:05.793Z,10.20
2019-02-21T21:48:35.404Z,10.40
2019-02-21T21:51:04.870Z,10.50
2019-02-21T21:53:34.275Z,10.40
2019-02-21T21:56:03.598Z,10.40
2019-02-21T21:58:32.957Z,10.40
2019-02-21T22:01:02.416Z,10.50
2019-02-21T22:03:31.738Z,10.40
2019-02-21T22:06:01.047Z,10.40
2019-02-21T22:08:30.479Z,10.20
2019-02-21T22:10:59.963Z,10.10
2019-02-21T22:13:29.289Z,10.20
2019-02-21T22:15:58.605Z,10.40
2019-02-21T22:18:27.932Z,10.40
2019-02-21T22:20:57.221Z,10.40
2019-02-21T22:23:26.558Z,10.40
2019-02-21T22:25:56.834Z,10.40
2019-02-21T22:28:26.459Z,10.40
2019-02-21T22:30:57.984Z,10.50
2019-02-21T22:33:26.989Z,10.40
2019-02-21T22:35:56.306Z,10.30
2019-02-21T22:38:25.626Z,10.30
2019-02-21T22:40:54.941Z,10.30
2019-02-21T22:43:24.251Z,10.30
2019-02-21T22:45:53.567Z,10.30
2019-02-21T22:48:22.894Z,10.20
2019-02-21T22:50:52.323Z,10.20
2019-02-21T22:53:21.657Z,10.20
2019-02-21T22:55:51.152Z,10.10
2019-02-21T22:58:20.473Z,10.00
2019-02-21T23:00:59.709Z,10.10
2019-02-21T23:03:39.526Z,10.30
2019-02-21T23:06:17.411Z,10.20
2019-02-21T23:08:49.810Z,10.00
2019-02-21T23:11:19.113Z,9.90
2019-02-21T23:13:48.667Z,9.80
2019-02-21T23:16:18.144Z,9.80
2019-02-21T23:18:47.645Z,9.80
2019-02-21T23:21:16.946Z,9.80
2019-02-21T23:23:46.276Z,9.80
2019-02-21T23:26:15.760Z,9.80
2019-02-21T23:28:45.062Z,10.00
2019-02-21T23:31:14.372Z,9.90
2019-02-21T23:33:51.460Z,10.00
2019-02-21T23:36:20.772Z,10.00
2019-02-21T23:38:50.098Z,9.90
2019-02-21T23:41:19.415Z,10.00
2019-02-21T23:43:48.818Z,10.00
2019-02-21T23:46:18.335Z,10.00
2019-02-21T23:48:47.749Z,10.10
2019-02-21T23:51:18.106Z,10.10
2019-02-21T23:53:47.406Z,10.00
2019-02-21T23:56:16.730Z,10.00
2019-02-21T23:58:46.051Z,9.80
